sensor_id;sensor_type;location;lat;lon;timestamp;pressure;altitude;pressure_sealevel;temperature;humidity
84770;BME280;75001;51.082;17.008;2024-03-23T00:58:18;101016.48;;;13.99;60.00
84770;BME280;75001;51.082;17.008;2024-03-23T01:08:28;100999.43;;;14.05;59.78
84770;BME280;75001;51.082;17.008;2024-03-23T01:18:38;100983.75;;;13.99;59.75
84770;BME280;75001;51.082;17.008;2024-03-23T01:28:48;100962.59;;;13.93;59.67
84770;BME280;75001;51.082;17.008;2024-03-23T01:38:58;100937.38;;;13.83;59.71
84770;BME280;75001;51.082;17.008;2024-03-23T01:49:09;100906.16;;;13.69;59.80
84770;BME280;75001;51.082;17.008;2024-03-23T01:59:18;100895.74;;;13.56;60.03
84770;BME280;75001;51.082;17.008;2024-03-23T02:09:28;100889.10;;;13.51;60.10
84770;BME280;75001;51.082;17.008;2024-03-23T02:19:38;100880.75;;;13.52;60.13
84770;BME280;75001;51.082;17.008;2024-03-23T02:29:48;100848.74;;;13.54;60.04
84770;BME280;75001;51.082;17.008;2024-03-23T02:39:58;100847.38;;;13.50;60.17
84770;BME280;75001;51.082;17.008;2024-03-23T02:50:09;100834.42;;;13.52;60.15
84770;BME280;75001;51.082;17.008;2024-03-23T03:00:18;100822.36;;;13.63;59.92
84770;BME280;75001;51.082;17.008;2024-03-23T03:10:28;100810.28;;;13.74;59.64
84770;BME280;75001;51.082;17.008;2024-03-23T03:20:39;100786.59;;;13.82;59.45
84770;BME280;75001;51.082;17.008;2024-03-23T03:30:48;100777.19;;;13.77;59.49
84770;BME280;75001;51.082;17.008;2024-03-23T03:40:58;100773.48;;;13.78;59.44
84770;BME280;75001;51.082;17.008;2024-03-23T03:51:08;100757.77;;;13.80;59.40
84770;BME280;75001;51.082;17.008;2024-03-23T04:01:18;100743.12;;;13.81;59.34
84770;BME280;75001;51.082;17.008;2024-03-23T04:11:28;100743.10;;;13.89;59.13
84770;BME280;75001;51.082;17.008;2024-03-23T04:21:38;100756.91;;;13.96;58.98
84770;BME280;75001;51.082;17.008;2024-03-23T04:31:48;100757.77;;;13.88;59.04
84770;BME280;75001;51.082;17.008;2024-03-23T04:41:58;100749.79;;;13.78;59.17
84770;BME280;75001;51.082;17.008;2024-03-23T04:52:08;100735.64;;;13.75;59.09
84770;BME280;75001;51.082;17.008;2024-03-23T05:02:18;100716.75;;;13.73;59.00
84770;BME280;75001;51.082;17.008;2024-03-23T05:12:28;100709.41;;;13.74;58.92
84770;BME280;75001;51.082;17.008;2024-03-23T05:22:40;100718.97;;;13.62;58.96
84770;BME280;75001;51.082;17.008;2024-03-23T05:32:48;100702.95;;;13.67;58.92
84770;BME280;75001;51.082;17.008;2024-03-23T05:42:59;100690.99;;;13.76;58.73
84770;BME280;75001;51.082;17.008;2024-03-23T05:53:09;100677.83;;;13.96;58.45
84770;BME280;75001;51.082;17.008;2024-03-23T06:03:19;100663.07;;;14.21;58.29
84770;BME280;75001;51.082;17.008;2024-03-23T06:13:29;100678.33;;;14.47;57.69
84770;BME280;75001;51.082;17.008;2024-03-23T06:23:39;100694.18;;;14.51;57.18
84770;BME280;75001;51.082;17.008;2024-03-23T06:33:49;100681.58;;;14.50;57.29
84770;BME280;75001;51.082;17.008;2024-03-23T06:43:59;100641.55;;;14.66;57.02
84770;BME280;75001;51.082;17.008;2024-03-23T06:54:09;100617.66;;;14.68;56.82
84770;BME280;75001;51.082;17.008;2024-03-23T07:04:19;100608.02;;;14.80;56.72
84770;BME280;75001;51.082;17.008;2024-03-23T07:14:29;100576.94;;;15.04;56.27
84770;BME280;75001;51.082;17.008;2024-03-23T07:24:40;100559.90;;;15.17;55.91
84770;BME280;75001;51.082;17.008;2024-03-23T07:34:49;100533.52;;;15.39;55.38
84770;BME280;75001;51.082;17.008;2024-03-23T07:44:59;100519.10;;;15.59;54.84
84770;BME280;75001;51.082;17.008;2024-03-23T07:55:12;100490.75;;;16.12;54.34
84770;BME280;75001;51.082;17.008;2024-03-23T08:05:22;100460.01;;;16.31;54.01
84770;BME280;75001;51.082;17.008;2024-03-23T08:15:32;100468.47;;;16.79;52.76
84770;BME280;75001;51.082;17.008;2024-03-23T08:25:42;100447.78;;;17.04;52.10
84770;BME280;75001;51.082;17.008;2024-03-23T08:35:56;100410.53;;;17.10;51.50
84770;BME280;75001;51.082;17.008;2024-03-23T08:46:09;100378.20;;;17.95;50.43
84770;BME280;75001;51.082;17.008;2024-03-23T09:02:22;100367.88;;;16.94;51.10
84770;BME280;75001;51.082;17.008;2024-03-23T09:12:35;100330.98;;;16.97;51.32
84770;BME280;75001;51.082;17.008;2024-03-23T09:22:44;100305.70;;;16.32;52.36
84770;BME280;75001;51.082;17.008;2024-03-23T09:32:55;100298.29;;;16.54;51.88
84770;BME280;75001;51.082;17.008;2024-03-23T09:43:06;100258.21;;;16.81;52.10
84770;BME280;75001;51.082;17.008;2024-03-23T09:53:15;100222.59;;;17.69;50.46
84770;BME280;75001;51.082;17.008;2024-03-23T10:03:25;100199.64;;;17.83;50.16
84770;BME280;75001;51.082;17.008;2024-03-23T10:13:35;100192.58;;;18.27;49.71
84770;BME280;75001;51.082;17.008;2024-03-23T10:23:45;100169.69;;;18.60;48.59
84770;BME280;75001;51.082;17.008;2024-03-23T10:33:55;100159.60;;;18.92;48.13
84770;BME280;75001;51.082;17.008;2024-03-23T10:44:05;100156.50;;;18.82;48.20
84770;BME280;75001;51.082;17.008;2024-03-23T10:54:15;100130.40;;;18.97;48.35
84770;BME280;75001;51.082;17.008;2024-03-23T11:04:31;100110.91;;;19.06;48.21
84770;BME280;75001;51.082;17.008;2024-03-23T11:14:35;100103.86;;;19.41;47.61
84770;BME280;75001;51.082;17.008;2024-03-23T11:24:50;100092.73;;;19.55;46.68
84770;BME280;75001;51.082;17.008;2024-03-23T11:34:55;100064.24;;;19.49;44.76
84770;BME280;75001;51.082;17.008;2024-03-23T11:45:09;100048.69;;;19.11;44.81
84770;BME280;75001;51.082;17.008;2024-03-23T11:55:16;100044.09;;;18.80;44.13
84770;BME280;75001;51.082;17.008;2024-03-23T12:05:26;100070.71;;;18.35;44.26
84770;BME280;75001;51.082;17.008;2024-03-23T12:15:35;100091.59;;;17.91;47.30
84770;BME280;75001;51.082;17.008;2024-03-23T12:25:48;100082.33;;;17.78;45.60
84770;BME280;75001;51.082;17.008;2024-03-23T12:35:55;100073.78;;;18.07;45.60
84770;BME280;75001;51.082;17.008;2024-03-23T12:46:05;100071.20;;;18.18;44.52
84770;BME280;75001;51.082;17.008;2024-03-23T12:56:15;100107.59;;;17.94;44.28
84770;BME280;75001;51.082;17.008;2024-03-23T13:06:25;100133.80;;;17.63;44.78
84770;BME280;75001;51.082;17.008;2024-03-23T13:16:35;100238.84;;;16.41;47.35
84770;BME280;75001;51.082;17.008;2024-03-23T13:26:45;100237.37;;;15.61;50.63
84770;BME280;75001;51.082;17.008;2024-03-23T13:36:56;100273.31;;;14.86;51.33
84770;BME280;75001;51.082;17.008;2024-03-23T13:47:05;100309.24;;;14.30;51.87
84770;BME280;75001;51.082;17.008;2024-03-23T13:57:15;100364.83;;;13.91;53.47
84770;BME280;75001;51.082;17.008;2024-03-23T14:07:25;100415.27;;;13.33;54.57
84770;BME280;75001;51.082;17.008;2024-03-23T14:17:35;100470.88;;;12.42;54.28
84770;BME280;75001;51.082;17.008;2024-03-23T14:27:46;100499.06;;;12.00;54.75
84770;BME280;75001;51.082;17.008;2024-03-23T14:37:55;100547.48;;;11.71;54.42
84770;BME280;75001;51.082;17.008;2024-03-23T14:48:06;100558.45;;;11.53;53.94
84770;BME280;75001;51.082;17.008;2024-03-23T14:58:15;100572.97;;;11.35;54.13
84770;BME280;75001;51.082;17.008;2024-03-23T15:08:25;100580.97;;;10.93;55.66
84770;BME280;75001;51.082;17.008;2024-03-23T15:18:35;100602.48;;;10.51;56.04
84770;BME280;75001;51.082;17.008;2024-03-23T15:28:49;100607.49;;;10.28;56.28
84770;BME280;75001;51.082;17.008;2024-03-23T15:39:05;100662.97;;;9.96;55.89
84770;BME280;75001;51.082;17.008;2024-03-23T15:49:09;100679.76;;;10.09;55.80
84770;BME280;75001;51.082;17.008;2024-03-23T15:59:19;100701.68;;;9.88;55.99
84770;BME280;75001;51.082;17.008;2024-03-23T16:09:29;100724.20;;;10.16;55.21
84770;BME280;75001;51.082;17.008;2024-03-23T16:19:39;100721.66;;;10.15;54.57
84770;BME280;75001;51.082;17.008;2024-03-23T16:29:49;100743.98;;;10.36;54.24
84770;BME280;75001;51.082;17.008;2024-03-23T16:39:59;100714.38;;;10.25;53.95
84770;BME280;75001;51.082;17.008;2024-03-23T16:50:09;100731.99;;;10.02;53.46
84770;BME280;75001;51.082;17.008;2024-03-23T17:00:19;100729.17;;;9.84;52.72
84770;BME280;75001;51.082;17.008;2024-03-23T17:10:29;100770.01;;;9.73;53.02
84770;BME280;75001;51.082;17.008;2024-03-23T17:20:39;100782.82;;;9.71;52.99
84770;BME280;75001;51.082;17.008;2024-03-23T17:30:49;100868.06;;;9.66;52.60
84770;BME280;75001;51.082;17.008;2024-03-23T17:40:59;100917.39;;;9.70;52.05
84770;BME280;75001;51.082;17.008;2024-03-23T17:51:09;100940.07;;;9.69;52.06
84770;BME280;75001;51.082;17.008;2024-03-23T18:01:19;100932.91;;;9.68;52.11
84770;BME280;75001;51.082;17.008;2024-03-23T18:11:29;100917.39;;;9.70;51.88
84770;BME280;75001;51.082;17.008;2024-03-23T18:21:39;100950.32;;;9.75;52.20
84770;BME280;75001;51.082;17.008;2024-03-23T18:31:49;100948.05;;;9.90;52.27
84770;BME280;75001;51.082;17.008;2024-03-23T18:41:59;100916.68;;;9.78;52.31
84770;BME280;75001;51.082;17.008;2024-03-23T18:52:10;100924.94;;;9.76;52.28
84770;BME280;75001;51.082;17.008;2024-03-23T19:02:20;100927.77;;;9.36;53.00
84770;BME280;75001;51.082;17.008;2024-03-23T19:12:30;100886.02;;;9.58;52.77
84770;BME280;75001;51.082;17.008;2024-03-23T19:22:40;100892.86;;;9.72;52.79
84770;BME280;75001;51.082;17.008;2024-03-23T19:32:50;100875.06;;;9.69;52.99
84770;BME280;75001;51.082;17.008;2024-03-23T19:43:00;100868.80;;;9.69;53.15
84770;BME280;75001;51.082;17.008;2024-03-23T19:53:10;100855.52;;;9.46;53.56
84770;BME280;75001;51.082;17.008;2024-03-23T20:03:20;100840.28;;;9.45;53.80
84770;BME280;75001;51.082;17.008;2024-03-23T20:13:31;100854.39;;;9.49;54.10
84770;BME280;75001;51.082;17.008;2024-03-23T20:23:41;100862.18;;;9.13;54.55
84770;BME280;75001;51.082;17.008;2024-03-23T20:33:51;100844.96;;;9.24;54.98
84770;BME280;75001;51.082;17.008;2024-03-23T20:44:01;100843.80;;;9.16;55.64
84770;BME280;75001;51.082;17.008;2024-03-23T20:54:11;100831.14;;;9.27;55.70
84770;BME280;75001;51.082;17.008;2024-03-23T21:04:21;100842.11;;;9.15;55.74
84770;BME280;75001;51.082;17.008;2024-03-23T21:14:31;100830.40;;;9.15;55.98
84770;BME280;75001;51.082;17.008;2024-03-23T21:24:41;100827.58;;;9.16;56.08
84770;BME280;75001;51.082;17.008;2024-03-23T21:34:51;100824.57;;;9.10;56.26
84770;BME280;75001;51.082;17.008;2024-03-23T21:45:01;100822.55;;;9.02;56.38
84770;BME280;75001;51.082;17.008;2024-03-23T21:55:11;100817.13;;;9.02;56.42
84770;BME280;75001;51.082;17.008;2024-03-23T22:05:21;100796.77;;;8.98;56.43
84770;BME280;75001;51.082;17.008;2024-03-23T22:15:31;100796.22;;;9.04;56.34
84770;BME280;75001;51.082;17.008;2024-03-23T22:25:49;100809.07;;;8.62;56.32
84770;BME280;75001;51.082;17.008;2024-03-23T22:35:51;100812.01;;;8.49;56.42
84770;BME280;75001;51.082;17.008;2024-03-23T22:46:03;100803.05;;;8.49;56.21
84770;BME280;75001;51.082;17.008;2024-03-23T22:56:11;100805.67;;;8.70;55.94
84770;BME280;75001;51.082;17.008;2024-03-23T23:06:21;100800.70;;;8.75;55.77
84770;BME280;75001;51.082;17.008;2024-03-23T23:16:31;100783.62;;;8.74;55.81
84770;BME280;75001;51.082;17.008;2024-03-23T23:26:41;100780.07;;;8.74;55.60
84770;BME280;75001;51.082;17.008;2024-03-23T23:36:51;100766.22;;;8.57;55.73
84770;BME280;75001;51.082;17.008;2024-03-23T23:47:01;100768.76;;;8.49;55.76
84770;BME280;75001;51.082;17.008;2024-03-23T23:57:11;100762.18;;;8.42;56.00
